WetterOnline ( https://www.wetteronline.de )

Wetter aktuell Großer Feldberg

Aktuelles Wetter: Kleiner Feldberg (802m)

6-stündlich | Neueste Meldungen
Ortszeit Temperatur Wetter
Fr, 17.09. 8:00 9.8° C Nebel
Fr, 17.09. 2:00 9.5° C fast wolkenlos
Do, 16.09. 20:00 10.6° C bedeckt
Do, 16.09. 14:00 11.5° C bedeckt
Do, 16.09. 8:00 10.2° C Nebel
Do, 16.09. 2:00 12.4° C Nebel
Mi, 15.09. 20:00 15.8° C Nebel
Mi, 15.09. 14:00 15.6° C leichter Regen
Ortszeit Temperatur Wetter
Fr, 17.09. 9:00 10.8° C bewölkt
Fr, 17.09. 8:50 10.8° C bewölkt
Fr, 17.09. 8:40 10.7° C bewölkt
Fr, 17.09. 8:30 10.4° C bewölkt
Fr, 17.09. 8:20 10.4° C bewölkt
Fr, 17.09. 8:10 10.2° C wolkig
Fr, 17.09. 8:00 9.8° C Nebel
Fr, 17.09. 7:30 9.5° C leicht bewölkt
Fr, 17.09. 7:00 9.5° C wolkig
Fr, 17.09. 6:30 9.6° C fast wolkenlos
Fr, 17.09. 6:00 9.4° C Nebel
Ortszeit Relative Feuchte Sichtweite
Fr, 17.09. 8:00 99% 0.9 km
Fr, 17.09. 2:00 97% 5.0 km
Do, 16.09. 20:00 96% 17 km
Do, 16.09. 14:00 91% 40 km
Do, 16.09. 8:00 100% 100 m
Do, 16.09. 2:00 100% 100 m
Mi, 15.09. 20:00 100% <100 m
Mi, 15.09. 14:00 99% 0.2 km
Ortszeit Relative Feuchte Sichtweite
Fr, 17.09. 9:00 96% 3.0 km
Fr, 17.09. 8:50 96% -
Fr, 17.09. 8:40 97% -
Fr, 17.09. 8:30 97% 2.4 km
Fr, 17.09. 8:20 97% -
Fr, 17.09. 8:10 97% -
Fr, 17.09. 8:00 99% 0.9 km
Fr, 17.09. 7:30 100% 1.1 km
Fr, 17.09. 7:00 99% 2.4 km
Fr, 17.09. 6:30 99% 2.2 km
Fr, 17.09. 6:00 99% 0.5 km
Ortszeit Niederschlagsmenge Niederschlagsart
Fr, 17.09. 8:00 0.1 l/m2 in 12 Std. -
Fr, 17.09. 2:00 0.0 l/m2 in 6 Std. -
Do, 16.09. 20:00 0.0 l/m2 in 12 Std. -
Do, 16.09. 14:00 0.0 l/m2 in 6 Std. -
Do, 16.09. 8:00 3 l/m2 in 12 Std. Regen
Do, 16.09. 2:00 2 l/m2 in 6 Std. Regen
Mi, 15.09. 20:00 16 l/m2 in 12 Std. Regen
Mi, 15.09. 14:00 4 l/m2 in 6 Std. Regen
Ortszeit Niederschlagsmenge Niederschlagsart
Fr, 17.09. 9:00 0.0 l/m2 in 1 Std. -
Fr, 17.09. 8:50 keine Meldung -
Fr, 17.09. 8:40 keine Meldung -
Fr, 17.09. 8:30 0.0 l/m2 in 1 Std. -
Fr, 17.09. 8:20 keine Meldung -
Fr, 17.09. 8:10 keine Meldung -
Fr, 17.09. 8:00 0.1 l/m2 in 1 Std. -
Fr, 17.09. 7:30 0.1 l/m2 in 1 Std. -
Fr, 17.09. 7:00 0.1 l/m2 in 1 Std. -
Fr, 17.09. 6:30 0.1 l/m2 in 1 Std. -
Fr, 17.09. 6:00 0.1 l/m2 in 1 Std. -
Ortszeit Stärke Spitze Richtung
km/h Bft. km/h Grad Sektor
Fr, 17.09. 8:00 7 2 25 340° N
Fr, 17.09. 2:00 7 2 18 320° NW
Do, 16.09. 20:00 9 2 28 320° NW
Do, 16.09. 14:00 11 2 36 330° NW
Do, 16.09. 8:00 14 3 32 330° NW
Do, 16.09. 2:00 13 3 33 330° NW
Mi, 15.09. 20:00 7 2 33 250° W
Mi, 15.09. 14:00 13 3 33 220° SW
Ortszeit Stärke Spitze Richtung
km/h Bft. km/h Grad Sektor
Fr, 17.09. 9:00 6 1 11 330° NW
Fr, 17.09. 8:50 6 1 - 330° NW
Fr, 17.09. 8:40 4 1 - 330° NW
Fr, 17.09. 8:30 6 1 11 330° NW
Fr, 17.09. 8:20 6 1 - 330° NW
Fr, 17.09. 8:10 7 2 - 340° N
Fr, 17.09. 8:00 7 2 18 340° N
Fr, 17.09. 7:30 7 2 18 330° NW
Fr, 17.09. 7:00 9 2 26 330° NW
Fr, 17.09. 6:30 11 2 26 340° N
Fr, 17.09. 6:00 11 2 18 330° NW
Ortszeit Untergrenze Bedeckung Gattung
total tief tief mittel hoch
Fr, 17.09. 8:00 90 m 6/8 6/8 - - -
Fr, 17.09. 2:00 90 m 1/8 1/8 - - -
Do, 16.09. 20:00 270 m 8/8 8/8 - - -
Do, 16.09. 14:00 180 m 8/8 8/8 - - -
Do, 16.09. 8:00 <30 m 8/8 0/8 - - -
Do, 16.09. 2:00 <30 m 7/8 0/8 - - -
Mi, 15.09. 20:00 <30 m 8/8 0/8 - - -
Mi, 15.09. 14:00 <30 m 8/8 0/8 - - -
Ortszeit Bedeckungsgrad in Achtel und Wolkenuntergrenze
Fr, 17.09. 9:00 6(60m) 7(150m) 7(270m)
Fr, 17.09. 8:50 6(60m) 7(150m) 7(270m)
Fr, 17.09. 8:40 7(90m) 7(270m) 7(1380m)
Fr, 17.09. 8:30 4(90m) 6(300m) 7(5700m)
Fr, 17.09. 8:20 4(90m) 6(300m) 7(5700m)
Fr, 17.09. 8:10 3(90m) 5(270m) 6(5700m)
Fr, 17.09. 8:00 5(90m) 6(300m) 6(5700m)
Fr, 17.09. 7:30 2(270m) 5(270m)
Fr, 17.09. 7:00 2(270m)
Fr, 17.09. 6:30 1(390m)
Fr, 17.09. 6:00 keine Wolken
Ortszeit Stationsdruck (hPa) Tendenz (hPa in 3 Std.)
Fr, 17.09. 8:00 922 - 0,3
Fr, 17.09. 2:00 923 - 0,1
Do, 16.09. 20:00 922 + 0,2
Do, 16.09. 14:00 922 + 0,6
Do, 16.09. 8:00 921 + 0,5
Do, 16.09. 2:00 920 + 0,3
Mi, 15.09. 20:00 919 + 0,2
Mi, 15.09. 14:00 919 - 0,5
Ortszeit Stationsdruck (hPa) Tendenz (hPa in 3 Std.)
Fr, 17.09. 9:00 922 + 0,5
Fr, 17.09. 8:50 922 keine Meldung
Fr, 17.09. 8:40 922 keine Meldung
Fr, 17.09. 8:30 922 + 0,2
Fr, 17.09. 8:20 922 keine Meldung
Fr, 17.09. 8:10 922 keine Meldung
Fr, 17.09. 8:00 922 - 0,3
Fr, 17.09. 7:30 922 - 0,4
Fr, 17.09. 7:00 922 - 0,5
Fr, 17.09. 6:30 922 - 0,9
Fr, 17.09. 6:00 922 - 1,1
Ortszeit Schneehöhe (cm)
Fr, 17.09. 8:00 0
Fr, 17.09. 2:00 0
Do, 16.09. 20:00 0
Do, 16.09. 14:00 0
Do, 16.09. 8:00 0
Do, 16.09. 2:00 0
Mi, 15.09. 20:00 0
Mi, 15.09. 14:00 0
Ortszeit Schneehöhe (cm)
Fr, 17.09. 9:00 0
Fr, 17.09. 8:50 0
Fr, 17.09. 8:40 0
Fr, 17.09. 8:30 0
Fr, 17.09. 8:20 0
Fr, 17.09. 8:10 0
Fr, 17.09. 8:00 0
Fr, 17.09. 7:30 0
Fr, 17.09. 7:00 0
Fr, 17.09. 6:30 0
Fr, 17.09. 6:00 0
Link zu dieser Seite / Seite empfehlen

Das Wetter in ...